Time;durP1;ratioP1;P1;durP2;ratioP2;P2;SDS_P1;SDS_P2;PMS_P1;PMS_P2;Temp;Humidity;BMP_temperature;BMP_pressure;BME280_temperature;BME280_humidity;BME280_pressure;Samples;Min_cycle;Max_cycle;Signal;HPM_P1;HPM_P2
2023/07/05 00:00:57;;;;;;;8.45;3.58;;;11.80;99.90;;;;;;5049163;28;20039;-57
2023/07/05 00:03:22;;;;;;;4.95;3.25;;;11.70;99.90;;;;;;5027375;28;20528;-58
2023/07/05 00:05:48;;;;;;;4.93;3.50;;;11.70;99.90;;;;;;5030029;28;20037;-58
2023/07/05 00:08:13;;;;;;;6.78;3.45;;;11.70;99.90;;;;;;5046078;28;20057;-58
2023/07/05 00:10:39;;;;;;;5.43;3.53;;;11.60;99.90;;;;;;5029287;28;20074;-57
2023/07/05 00:13:05;;;;;;;5.32;4.03;;;11.60;99.90;;;;;;5039440;28;20506;-57
2023/07/05 00:15:31;;;;;;;6.38;3.65;;;11.60;99.90;;;;;;5046243;28;20048;-57
2023/07/05 00:17:57;;;;;;;6.00;4.28;;;11.60;99.90;;;;;;5029391;28;20778;-56
2023/07/05 00:20:23;;;;;;;6.15;4.30;;;11.50;99.90;;;;;;5028263;28;20029;-59
2023/07/05 00:22:49;;;;;;;6.47;3.63;;;11.50;99.90;;;;;;5048075;28;20025;-60
2023/07/05 00:25:15;;;;;;;5.57;4.00;;;11.50;99.90;;;;;;5027497;28;20030;-57
2023/07/05 00:27:40;;;;;;;6.93;4.00;;;11.50;99.90;;;;;;5047856;28;20074;-57
2023/07/05 00:30:06;;;;;;;6.28;4.35;;;11.50;99.90;;;;;;5034099;28;20069;-58
2023/07/05 00:32:32;;;;;;;6.45;4.05;;;11.40;99.90;;;;;;5040384;28;20033;-58
2023/07/05 00:34:57;;;;;;;6.85;4.55;;;11.40;99.90;;;;;;5031294;28;20037;-58
2023/07/05 00:37:23;;;;;;;9.63;4.10;;;11.40;99.90;;;;;;5047856;28;20112;-59
2023/07/05 00:39:48;;;;;;;9.00;4.40;;;11.40;99.90;;;;;;5027087;28;20091;-58
2023/07/05 00:42:14;;;;;;;6.82;4.20;;;11.30;99.90;;;;;;5031086;28;20529;-58
2023/07/05 00:44:40;;;;;;;9.20;4.43;;;11.40;99.90;;;;;;5033620;28;20033;-59
2023/07/05 00:47:21;;;;;;;5.55;4.25;;;11.30;99.90;;;;;;5047827;28;20106;-58
2023/07/05 00:49:47;;;;;;;7.78;4.68;;;11.30;99.90;;;;;;5019991;28;20091;-59
2023/07/05 00:52:16;;;;;;;4.75;3.42;;;11.30;99.90;;;;;;5047394;28;20036;-58
2023/07/05 00:54:52;;;;;;;5.93;3.67;;;11.30;99.90;;;;;;5026146;28;20561;-58
2023/07/05 00:57:20;;;;;;;;;;;11.30;99.90;;;;;;5016970;28;20091;-57
2023/07/05 00:59:57;;;;;;;7.88;4.15;;;11.30;99.90;;;;;;5030680;28;20027;-58
2023/07/05 01:02:23;;;;;;;8.43;4.63;;;11.30;99.90;;;;;;5008087;28;20549;-58
2023/07/05 01:04:49;;;;;;;6.75;4.13;;;11.30;99.90;;;;;;5029220;28;20111;-58
2023/07/05 01:07:15;;;;;;;6.28;4.05;;;11.30;99.90;;;;;;5034639;28;20113;-57
2023/07/05 01:09:41;;;;;;;4.97;4.03;;;11.30;99.90;;;;;;5029665;28;20120;-61
2023/07/05 01:12:38;;;;;;;5.82;3.35;;;11.30;99.90;;;;;;5029455;28;20505;-57
2023/07/05 01:15:10;;;;;;;8.52;3.85;;;11.30;99.90;;;;;;5029728;28;20040;-57
2023/07/05 01:18:04;;;;;;;4.88;3.63;;;11.30;99.90;;;;;;5046301;28;20033;-59
2023/07/05 01:20:50;;;;;;;5.95;3.38;;;11.20;99.90;;;;;;5026182;28;20075;-58
2023/07/05 01:23:53;;;;;;;5.88;4.38;;;11.30;99.90;;;;;;5007129;28;20655;-57
2023/07/05 01:26:56;;;;;;;9.93;4.15;;;11.30;99.90;;;;;;5027427;28;20800;-59
2023/07/05 01:30:04;;;;;;;7.45;4.25;;;11.30;99.90;;;;;;5024070;28;20054;-57
2023/07/05 01:32:47;;;;;;;10.10;5.13;;;11.30;99.90;;;;;;5008259;28;20034;-59
2023/07/05 01:35:20;;;;;;;5.88;4.32;;;11.30;99.90;;;;;;5023053;28;20048;-57
2023/07/05 01:37:46;;;;;;;6.22;4.28;;;11.40;99.90;;;;;;5007695;28;20048;-59
2023/07/05 01:40:25;;;;;;;8.02;4.15;;;11.40;99.90;;;;;;5027326;28;20033;-57
2023/07/05 01:43:03;;;;;;;5.20;3.85;;;11.40;99.90;;;;;;5023087;28;20045;-56
2023/07/05 01:45:41;;;;;;;9.10;4.68;;;11.40;99.90;;;;;;5023486;28;20087;-58
2023/07/05 01:48:37;;;;;;;7.20;4.78;;;11.40;99.90;;;;;;5027151;28;20041;-57
2023/07/05 01:51:31;;;;;;;7.53;4.53;;;11.40;99.90;;;;;;5020513;28;20489;-58
2023/07/05 01:54:23;;;;;;;4.40;3.95;;;11.50;99.90;;;;;;5009854;28;20398;-58
2023/07/05 01:57:06;;;;;;;8.05;4.30;;;11.50;99.90;;;;;;5027354;28;20029;-58
2023/07/05 01:59:47;;;;;;;6.82;4.00;;;11.60;99.90;;;;;;5034270;28;20036;-57
2023/07/05 02:02:16;;;;;;;9.57;4.10;;;11.60;99.90;;;;;;5029694;28;20029;-58
2023/07/05 02:04:43;;;;;;;7.95;4.40;;;11.70;99.90;;;;;;5040439;28;20102;-53
2023/07/05 02:07:09;;;;;;;7.82;4.82;;;11.80;99.90;;;;;;5026839;28;20178;-60
2023/07/05 02:09:36;;;;;;;5.55;3.97;;;11.90;99.90;;;;;;5045352;28;20033;-57
2023/07/05 02:12:01;;;;;;;11.90;4.80;;;11.90;99.90;;;;;;5029400;28;20757;-59
2023/07/05 02:14:27;;;;;;;6.25;4.43;;;12.00;99.90;;;;;;5046282;28;20081;-58
2023/07/05 02:16:52;;;;;;;8.10;4.47;;;11.90;99.90;;;;;;5028021;28;20108;-58
2023/07/05 02:19:18;;;;;;;8.40;3.90;;;12.00;99.90;;;;;;5048375;28;20021;-57
2023/07/05 02:21:43;;;;;;;10.18;3.65;;;12.00;99.90;;;;;;5026643;28;20064;-58
2023/07/05 02:24:09;;;;;;;6.45;4.13;;;12.00;99.90;;;;;;5048365;28;20032;-56
2023/07/05 02:26:34;;;;;;;6.90;4.25;;;12.00;99.90;;;;;;5027669;28;20143;-57
2023/07/05 02:29:00;;;;;;;5.03;4.18;;;12.10;99.90;;;;;;5046470;28;20031;-59
2023/07/05 02:31:26;;;;;;;8.50;4.47;;;12.10;99.90;;;;;;5027130;28;20037;-59
2023/07/05 02:33:51;;;;;;;8.65;4.72;;;12.20;99.90;;;;;;5047941;28;20036;-58
2023/07/05 02:36:17;;;;;;;8.77;4.50;;;12.20;99.90;;;;;;5027671;28;20382;-56
2023/07/05 02:38:43;;;;;;;14.60;5.18;;;12.20;99.90;;;;;;5048026;28;20399;-59
2023/07/05 02:41:09;;;;;;;8.68;4.88;;;12.20;99.90;;;;;;5027553;28;20037;-58
2023/07/05 02:43:34;;;;;;;6.93;4.97;;;12.30;99.90;;;;;;5047899;28;20037;-58
2023/07/05 02:46:01;;;;;;;8.10;5.03;;;12.40;99.90;;;;;;5027310;28;20048;-59
2023/07/05 02:48:26;;;;;;;8.48;5.15;;;12.30;99.90;;;;;;5046702;28;20027;-57
2023/07/05 02:50:52;;;;;;;10.55;4.68;;;12.40;99.90;;;;;;5027390;28;20037;-58
2023/07/05 02:53:17;;;;;;;6.78;3.80;;;12.40;99.90;;;;;;5047692;28;20568;-58
2023/07/05 02:55:43;;;;;;;7.28;4.35;;;12.40;99.90;;;;;;5026978;28;20037;-57
2023/07/05 02:58:09;;;;;;;7.93;4.50;;;12.40;99.90;;;;;;5047590;28;20043;-57
2023/07/05 03:00:35;;;;;;;5.55;4.07;;;12.50;99.90;;;;;;5026995;28;20166;-59
2023/07/05 03:03:00;;;;;;;8.13;5.05;;;12.50;99.90;;;;;;5047730;28;20121;-59
2023/07/05 03:05:26;;;;;;;8.90;4.95;;;12.60;99.90;;;;;;5021434;28;20116;-60
2023/07/05 03:07:52;;;;;;;7.00;4.88;;;12.60;99.90;;;;;;5047523;28;20095;-59
2023/07/05 03:10:18;;;;;;;8.68;3.92;;;12.70;99.90;;;;;;5026739;28;20048;-61
2023/07/05 03:12:43;;;;;;;7.95;4.88;;;12.70;99.90;;;;;;5028435;28;20393;-59
2023/07/05 03:15:09;;;;;;;10.00;4.68;;;12.80;99.90;;;;;;5039502;28;20032;-59
2023/07/05 03:17:35;;;;;;;7.95;4.43;;;12.80;99.50;;;;;;5028011;28;20030;-57
2023/07/05 03:20:00;;;;;;;6.72;5.25;;;12.90;99.10;;;;;;5040734;28;20091;-59
2023/07/05 03:22:27;;;;;;;11.15;5.57;;;13.00;98.00;;;;;;5028218;28;20021;-58
2023/07/05 03:24:52;;;;;;;11.20;4.68;;;13.10;97.20;;;;;;5041912;28;20120;-59
2023/07/05 03:27:19;;;;;;;8.55;4.82;;;13.20;96.30;;;;;;5028218;28;20108;-59
2023/07/05 03:29:44;;;;;;;9.07;5.10;;;13.30;95.60;;;;;;5037656;28;20077;-57
2023/07/05 03:32:10;;;;;;;6.72;4.50;;;13.40;95.30;;;;;;5027042;28;20563;-59
2023/07/05 03:34:36;;;;;;;11.90;4.80;;;13.40;94.60;;;;;;5045262;28;20033;-58
2023/07/05 03:37:01;;;;;;;9.05;4.18;;;13.50;94.30;;;;;;5048054;28;20496;-57
2023/07/05 03:39:27;;;;;;;6.00;4.10;;;13.50;93.90;;;;;;5045698;28;20122;-56
2023/07/05 03:41:52;;;;;;;8.85;4.45;;;13.60;94.10;;;;;;5027962;28;20025;-58
2023/07/05 03:44:21;;;;;;;7.40;4.22;;;13.60;93.40;;;;;;5047048;28;20037;-57
2023/07/05 03:46:50;;;;;;;8.05;4.32;;;13.70;93.10;;;;;;5026128;28;20037;-57
2023/07/05 03:49:17;;;;;;;7.45;4.30;;;13.70;93.20;;;;;;5047539;28;20033;-58
2023/07/05 03:51:42;;;;;;;8.05;4.63;;;13.70;92.80;;;;;;5026361;28;20045;-58
2023/07/05 03:54:08;;;;;;;7.07;4.18;;;13.80;92.70;;;;;;5024749;28;20551;-58
2023/07/05 03:56:34;;;;;;;7.85;4.40;;;13.90;92.20;;;;;;5047078;28;20039;-58
2023/07/05 03:59:00;;;;;;;8.13;3.92;;;13.90;92.20;;;;;;5026573;28;20033;-58
2023/07/05 04:01:27;;;;;;;4.05;2.97;;;14.10;92.30;;;;;;5047093;28;20029;-58
2023/07/05 04:03:58;;;;;;;4.30;3.85;;;14.20;91.70;;;;;;5026326;28;20040;-56
2023/07/05 04:06:27;;;;;;;6.35;3.97;;;14.30;91.80;;;;;;5002371;28;20030;-58
2023/07/05 04:08:53;;;;;;;6.43;4.32;;;14.40;91.30;;;;;;5028525;28;20040;-59
2023/07/05 04:11:18;;;;;;;6.10;3.50;;;14.50;90.40;;;;;;5045978;28;20033;-58
2023/07/05 04:13:45;;;;;;;8.45;4.35;;;14.70;89.50;;;;;;5026404;28;20072;-56
2023/07/05 04:16:16;;;;;;;4.57;3.92;;;15.00;88.60;;;;;;5047153;28;20033;-54
2023/07/05 04:18:43;;;;;;;8.45;4.30;;;15.50;85.60;;;;;;5036920;28;20040;-55
2023/07/05 04:21:10;;;;;;;4.97;3.33;;;16.00;82.50;;;;;;5047563;28;20033;-56
2023/07/05 04:23:36;;;;;;;6.47;3.40;;;16.30;79.90;;;;;;5026319;28;20026;-56
2023/07/05 04:26:04;;;;;;;5.65;3.33;;;16.60;76.30;;;;;;5046819;28;20045;-56
2023/07/05 04:28:31;;;;;;;6.40;3.63;;;16.80;77.30;;;;;;5027408;28;20033;-58
2023/07/05 04:30:57;;;;;;;7.70;3.35;;;17.00;73.00;;;;;;5050575;28;20179;-57
2023/07/05 04:33:23;;;;;;;7.55;3.60;;;17.00;75.00;;;;;;5030087;28;20109;-57
2023/07/05 04:35:50;;;;;;;4.40;3.15;;;17.10;75.20;;;;;;5050513;28;20025;-56
2023/07/05 04:38:16;;;;;;;8.18;3.33;;;17.20;74.50;;;;;;5041201;28;20033;-57
2023/07/05 04:40:42;;;;;;;5.53;3.15;;;17.30;72.10;;;;;;5051036;28;20100;-56
2023/07/05 04:43:08;;;;;;;5.65;3.58;;;17.50;73.10;;;;;;5028219;28;20033;-57
2023/07/05 04:45:33;;;;;;;4.22;2.92;;;17.60;71.40;;;;;;5049918;28;20040;-56
2023/07/05 04:47:59;;;;;;;4.38;2.95;;;17.80;69.90;;;;;;5029643;28;20025;-56
2023/07/05 04:50:24;;;;;;;4.82;3.28;;;17.90;70.00;;;;;;5050022;28;20484;-56
2023/07/05 04:52:49;;;;;;;10.10;3.15;;;17.90;68.50;;;;;;5035988;28;20035;-55
2023/07/05 04:55:15;;;;;;;6.05;3.25;;;17.80;68.50;;;;;;5050501;28;20037;-57
2023/07/05 04:57:42;;;;;;;6.97;3.25;;;17.90;66.40;;;;;;5029346;28;20040;-55
2023/07/05 05:00:08;;;;;;;5.10;3.03;;;18.10;66.60;;;;;;5050020;28;20025;-56
2023/07/05 05:02:34;;;;;;;7.22;3.15;;;18.60;65.30;;;;;;5029199;28;20026;-55
2023/07/05 05:05:00;;;;;;;6.72;3.00;;;18.70;61.30;;;;;;5037109;28;20550;-55
2023/07/05 05:07:26;;;;;;;6.10;3.08;;;18.90;62.50;;;;;;5019677;28;20087;-55
2023/07/05 05:09:52;;;;;;;6.35;3.25;;;19.60;61.80;;;;;;5048360;28;20033;-57
2023/07/05 05:12:17;;;;;;;6.68;3.20;;;20.50;59.40;;;;;;5027299;28;20113;-55
2023/07/05 05:14:42;;;;;;;8.02;3.40;;;21.60;55.40;;;;;;5030192;28;20029;-54
2023/07/05 05:17:08;;;;;;;4.93;3.30;;;22.50;45.70;;;;;;5042536;28;20547;-54
2023/07/05 05:19:33;;;;;;;8.73;3.40;;;23.30;49.10;;;;;;5030260;28;20048;-54
2023/07/05 05:21:59;;;;;;;7.30;4.10;;;23.20;42.60;;;;;;5047378;28;20021;-55
2023/07/05 05:24:24;;;;;;;8.80;3.58;;;23.20;38.60;;;;;;5049967;28;20079;-54
2023/07/05 05:26:50;;;;;;;4.95;3.42;;;22.30;38.90;;;;;;5045602;28;20025;-50
2023/07/05 05:29:15;;;;;;;5.13;3.35;;;21.70;42.40;;;;;;5033219;28;20123;-50
2023/07/05 05:31:41;;;;;;;6.38;3.10;;;21.40;41.40;;;;;;5046870;28;20041;-51
2023/07/05 05:34:06;;;;;;;5.97;3.47;;;21.10;43.40;;;;;;5029985;28;20504;-50
2023/07/05 05:36:32;;;;;;;5.43;3.67;;;21.00;46.00;;;;;;5048920;28;20047;-48
2023/07/05 05:38:57;;;;;;;8.65;3.95;;;20.70;45.20;;;;;;5024422;28;20769;-50
2023/07/05 05:41:22;;;;;;;5.35;3.42;;;20.70;46.60;;;;;;5034032;28;20056;-51
2023/07/05 05:43:50;;;;;;;4.90;3.35;;;20.60;47.90;;;;;;5026676;28;20036;-50
2023/07/05 05:46:16;;;;;;;9.18;4.35;;;20.90;44.80;;;;;;5047766;28;20680;-50
2023/07/05 05:48:42;;;;;;;6.72;3.90;;;20.90;44.90;;;;;;5044846;28;20029;-52
2023/07/05 05:51:07;;;;;;;7.00;3.55;;;21.30;44.10;;;;;;5048343;28;20032;-49
2023/07/05 05:53:33;;;;;;;9.05;4.45;;;21.60;45.10;;;;;;5025925;28;20033;-51
2023/07/05 05:55:58;;;;;;;6.20;4.07;;;22.10;42.00;;;;;;5034439;28;20116;-52
2023/07/05 05:58:24;;;;;;;5.45;3.65;;;22.70;41.40;;;;;;5026139;28;20057;-47
2023/07/05 06:00:51;;;;;;;6.80;4.07;;;23.30;39.20;;;;;;5035958;28;20159;-50
2023/07/05 06:03:16;;;;;;;7.82;4.30;;;23.60;37.30;;;;;;5026379;28;20033;-51
2023/07/05 06:05:42;;;;;;;7.55;4.15;;;23.90;38.10;;;;;;5020670;28;20719;-51
2023/07/05 06:08:07;;;;;;;7.55;3.80;;;24.10;33.00;;;;;;5037437;28;20489;-47
2023/07/05 06:10:33;;;;;;;7.50;4.03;;;24.80;34.30;;;;;;5027854;28;20116;-53
2023/07/05 06:12:59;;;;;;;6.53;4.00;;;25.30;30.30;;;;;;5027114;28;20067;-53
2023/07/05 06:15:24;;;;;;;7.50;4.03;;;25.00;28.60;;;;;;5047473;28;20067;-49
2023/07/05 06:17:50;;;;;;;6.88;3.55;;;24.20;29.80;;;;;;5026742;28;20045;-50
2023/07/05 06:20:16;;;;;;;6.80;3.90;;;24.00;31.90;;;;;;5047519;28;20040;-52
2023/07/05 06:22:42;;;;;;;7.65;4.32;;;24.00;32.80;;;;;;5026580;28;20683;-52
2023/07/05 06:25:10;;;;;;;11.27;4.85;;;23.10;31.50;;;;;;5047225;28;20051;-50
2023/07/05 06:27:35;;;;;;;7.55;4.72;;;22.10;34.40;;;;;;5026044;28;20087;-49
2023/07/05 06:30:01;;;;;;;7.30;4.22;;;21.80;34.90;;;;;;5037029;28;20460;-52
2023/07/05 06:32:27;;;;;;;9.98;5.15;;;21.40;36.80;;;;;;5045109;28;20035;-48
2023/07/05 06:34:52;;;;;;;8.90;4.93;;;21.00;37.20;;;;;;5047740;28;20032;-49
2023/07/05 06:37:17;;;;;;;6.95;4.70;;;20.80;38.90;;;;;;5039600;28;20029;-49
2023/07/05 06:39:44;;;;;;;7.90;4.25;;;20.80;40.30;;;;;;5027794;28;20049;-50
2023/07/05 06:42:10;;;;;;;8.75;5.10;;;20.70;40.20;;;;;;5040020;28;20029;-51
2023/07/05 06:44:35;;;;;;;9.48;5.28;;;20.70;40.20;;;;;;5027796;28;20068;-53
2023/07/05 06:47:00;;;;;;;12.48;5.53;;;20.80;41.00;;;;;;5041166;28;20032;-49
2023/07/05 06:49:26;;;;;;;10.25;5.55;;;20.90;40.50;;;;;;5027755;28;20117;-52
2023/07/05 06:51:53;;;;;;;8.13;5.03;;;20.90;41.20;;;;;;5041862;28;20037;-49
2023/07/05 06:54:20;;;;;;;13.45;5.57;;;20.80;40.80;;;;;;5027710;28;20112;-53
2023/07/05 06:56:46;;;;;;;8.05;5.25;;;20.80;41.60;;;;;;5044856;28;20029;-53
2023/07/05 06:59:11;;;;;;;7.65;5.22;;;21.00;41.40;;;;;;5047370;28;20071;-52
2023/07/05 07:01:37;;;;;;;8.75;5.05;;;21.30;41.60;;;;;;5040699;28;20450;-52
2023/07/05 07:04:06;;;;;;;7.18;5.07;;;22.60;38.80;;;;;;5027659;28;20018;-49
2023/07/05 07:06:35;;;;;;;10.75;5.53;;;23.80;36.50;;;;;;5024236;28;20040;-51
2023/07/05 07:09:05;;;;;;;11.15;5.88;;;23.80;34.40;;;;;;5020318;28;20037;-52
2023/07/05 07:11:31;;;;;;;10.25;5.82;;;23.60;34.20;;;;;;5027713;28;20029;-52
2023/07/05 07:13:56;;;;;;;10.15;5.18;;;23.40;33.70;;;;;;5025558;28;20029;-53
2023/07/05 07:16:22;;;;;;;10.77;5.85;;;23.00;35.50;;;;;;5046473;28;20120;-53
2023/07/05 07:18:49;;;;;;;10.88;6.72;;;23.00;35.70;;;;;;5044285;28;20037;-51
2023/07/05 07:21:16;;;;;;;12.50;7.63;;;22.60;35.30;;;;;;5047055;28;20120;-53
2023/07/05 07:23:44;;;;;;;9.80;6.82;;;22.30;36.60;;;;;;5025592;28;20040;-51
2023/07/05 07:26:13;;;;;;;12.02;6.18;;;22.00;38.70;;;;;;5046437;28;20095;-51
2023/07/05 07:28:39;;;;;;;11.20;7.57;;;21.80;38.80;;;;;;5025253;28;20040;-53
2023/07/05 07:31:10;;;;;;;10.60;6.80;;;21.80;39.20;;;;;;5046423;28;20086;-49
2023/07/05 07:33:35;;;;;;;14.38;7.10;;;21.80;39.20;;;;;;5022047;28;20559;-51
2023/07/05 07:36:12;;;;;;;8.95;6.03;;;22.20;38.50;;;;;;5046298;28;20033;-51
2023/07/05 07:38:39;;;;;;;8.57;5.90;;;24.30;35.30;;;;;;5042442;28;20496;-51
2023/07/05 07:41:22;;;;;;;8.32;6.45;;;26.00;32.60;;;;;;5046886;28;20033;-51
2023/07/05 07:43:50;;;;;;;10.25;6.93;;;26.40;27.50;;;;;;5023868;28;20052;-52
2023/07/05 07:46:18;;;;;;;10.10;6.90;;;25.70;28.40;;;;;;5046541;28;20037;-47
2023/07/05 07:48:46;;;;;;;11.00;7.57;;;25.80;30.00;;;;;;5025394;28;20489;-50
2023/07/05 07:51:12;;;;;;;10.43;7.25;;;25.50;29.40;;;;;;5046587;28;20091;-53
2023/07/05 07:53:37;;;;;;;12.57;7.72;;;25.20;29.40;;;;;;5025536;28;20116;-50
2023/07/05 07:56:14;;;;;;;12.50;7.85;;;24.80;30.00;;;;;;5046118;28;20033;-55
2023/07/05 07:58:41;;;;;;;12.80;7.78;;;24.40;29.80;;;;;;5024985;28;20743;-50
2023/07/05 08:01:18;;;;;;;10.45;8.05;;;24.00;32.30;;;;;;5046219;28;20771;-48
2023/07/05 08:03:44;;;;;;;12.75;8.55;;;24.20;32.20;;;;;;5024808;28;20037;-46
2023/07/05 08:06:10;;;;;;;12.70;8.55;;;24.80;31.30;;;;;;5043016;28;20128;-52
2023/07/05 08:08:40;;;;;;;14.85;8.25;;;25.30;29.90;;;;;;5046058;28;20033;-51
2023/07/05 08:11:08;;;;;;;11.98;8.48;;;25.80;28.90;;;;;;5010963;28;20030;-55
2023/07/05 08:13:34;;;;;;;13.48;9.35;;;26.10;29.30;;;;;;5031590;28;20032;-47
2023/07/05 08:16:00;;;;;;;13.30;8.80;;;26.20;29.00;;;;;;5049911;28;20029;-51
2023/07/05 08:18:26;;;;;;;13.68;9.60;;;26.20;27.70;;;;;;5028985;28;20029;-52
2023/07/05 08:20:52;;;;;;;14.98;9.48;;;25.80;28.30;;;;;;5049590;28;20021;-49
2023/07/05 08:23:18;;;;;;;16.65;10.00;;;25.60;28.40;;;;;;5028947;28;20486;-51
2023/07/05 08:25:44;;;;;;;16.23;11.32;;;25.30;28.40;;;;;;5049636;28;20068;-50
2023/07/05 08:28:13;;;;;;;15.25;10.50;;;25.10;28.60;;;;;;5042190;28;20392;-49
2023/07/05 08:30:42;;;;;;;15.70;10.77;;;25.00;28.80;;;;;;5049931;28;20049;-53
2023/07/05 08:33:07;;;;;;;15.48;11.15;;;24.80;28.90;;;;;;5028596;28;20032;-50
2023/07/05 08:35:33;;;;;;;16.23;11.80;;;24.60;29.20;;;;;;5049429;28;20444;-54
2023/07/05 08:38:00;;;;;;;14.05;10.85;;;24.40;29.60;;;;;;5028796;28;20038;-53
2023/07/05 08:40:33;;;;;;;15.35;11.55;;;24.60;29.70;;;;;;5049467;28;20068;-50
2023/07/05 08:43:13;;;;;;;17.30;12.00;;;24.80;29.50;;;;;;5028346;28;20053;-53
2023/07/05 08:45:43;;;;;;;17.77;11.57;;;24.90;29.60;;;;;;5010130;28;20045;-50
2023/07/05 08:48:12;;;;;;;15.13;10.55;;;25.30;29.50;;;;;;5034607;28;20099;-53
2023/07/05 08:50:44;;;;;;;14.50;11.25;;;25.50;29.30;;;;;;5049643;28;20051;-52
2023/07/05 08:53:18;;;;;;;14.82;10.68;;;25.80;28.90;;;;;;5021389;28;20516;-54
2023/07/05 08:55:58;;;;;;;13.13;11.07;;;26.10;28.20;;;;;;5010024;28;20026;-52
2023/07/05 08:58:26;;;;;;;15.05;11.18;;;26.20;27.90;;;;;;5023130;28;20068;-53
2023/07/05 09:00:57;;;;;;;14.02;10.68;;;26.20;27.90;;;;;;5049393;28;20116;-54
2023/07/05 09:03:28;;;;;;;15.70;11.00;;;26.20;27.90;;;;;;5023214;28;20469;-52
2023/07/05 09:06:17;;;;;;;15.38;10.98;;;26.00;27.70;;;;;;5003073;28;20122;-54
2023/07/05 09:09:12;;;;;;;13.88;10.77;;;25.80;27.40;;;;;;5034967;28;20045;-50
2023/07/05 09:11:59;;;;;;;16.07;10.70;;;25.50;28.00;;;;;;5008553;28;20037;-53
2023/07/05 09:14:54;;;;;;;15.32;10.80;;;25.20;28.50;;;;;;5029086;28;20255;-51
2023/07/05 09:17:47;;;;;;;14.18;10.88;;;24.80;28.80;;;;;;5040984;28;20030;-50
2023/07/05 09:20:30;;;;;;;13.07;9.93;;;24.40;29.50;;;;;;5029462;28;20029;-53
2023/07/05 09:23:00;;;;;;;11.13;8.73;;;24.20;30.20;;;;;;5018982;28;20402;-49
2023/07/05 09:25:30;;;;;;;16.23;10.35;;;24.20;30.00;;;;;;5049061;28;20040;-52
2023/07/05 09:28:06;;;;;;;13.02;9.25;;;24.30;30.60;;;;;;5027238;28;20120;-51
2023/07/05 09:30:33;;;;;;;9.95;8.55;;;24.60;30.40;;;;;;5009212;28;20537;-54
2023/07/05 09:33:07;;;;;;;12.70;9.55;;;24.90;30.00;;;;;;5034436;28;20536;-54
2023/07/05 09:35:35;;;;;;;11.65;8.52;;;25.20;29.90;;;;;;5009429;28;20546;-52
2023/07/05 09:38:01;;;;;;;11.80;9.50;;;25.40;29.10;;;;;;5034584;28;20168;-52
2023/07/05 09:40:34;;;;;;;13.60;8.80;;;25.50;28.90;;;;;;5048327;28;20112;-51
2023/07/05 09:43:06;;;;;;;10.82;8.07;;;25.60;28.80;;;;;;5019255;28;20056;-52
2023/07/05 09:45:32;;;;;;;12.73;7.75;;;25.80;28.90;;;;;;5009135;28;20539;-54
2023/07/05 09:48:00;;;;;;;14.25;7.40;;;26.00;28.90;;;;;;5034221;28;20034;-51
2023/07/05 09:50:26;;;;;;;10.27;6.88;;;25.90;28.20;;;;;;5048180;28;20036;-49
2023/07/05 09:52:56;;;;;;;9.50;7.15;;;25.90;28.70;;;;;;5038058;28;20017;-53
2023/07/05 09:55:22;;;;;;;7.50;6.18;;;25.80;28.80;;;;;;5048610;28;20036;-51
2023/07/05 09:57:48;;;;;;;12.05;6.15;;;25.70;29.10;;;;;;5027075;28;20041;-52
2023/07/05 10:00:36;;;;;;;8.85;6.93;;;25.50;30.20;;;;;;5047911;28;20103;-52
2023/07/05 10:03:09;;;;;;;9.55;5.95;;;24.90;34.50;;;;;;5019043;28;20033;-52
2023/07/05 10:05:34;;;;;;;9.40;6.93;;;24.40;35.40;;;;;;5021494;28;20028;-51
2023/07/05 10:08:04;;;;;;;7.45;6.22;;;24.30;35.30;;;;;;5027069;28;20026;-50
2023/07/05 10:10:40;;;;;;;9.15;6.40;;;24.40;35.40;;;;;;5048275;28;20090;-52
2023/07/05 10:13:29;;;;;;;7.40;5.60;;;24.40;36.50;;;;;;5019421;28;20087;-53
2023/07/05 10:16:03;;;;;;;5.88;4.88;;;24.60;36.80;;;;;;5048335;28;20045;-53
2023/07/05 10:18:35;;;;;;;8.38;5.72;;;24.90;35.50;;;;;;5038358;28;20033;-53
2023/07/05 10:21:09;;;;;;;9.13;6.25;;;25.00;34.40;;;;;;5047959;28;20033;-52
2023/07/05 10:23:35;;;;;;;7.13;5.03;;;25.00;34.20;;;;;;5023057;28;20072;-52
2023/07/05 10:26:05;;;;;;;7.13;5.68;;;25.10;34.20;;;;;;5046509;28;20056;-54
2023/07/05 10:28:35;;;;;;;7.55;5.55;;;25.10;34.00;;;;;;5025613;28;20045;-53
2023/07/05 10:31:05;;;;;;;7.82;5.90;;;24.90;34.50;;;;;;5044499;28;20093;-51
2023/07/05 10:33:37;;;;;;;6.63;5.38;;;24.90;34.80;;;;;;5027167;28;20029;-47
2023/07/05 10:36:10;;;;;;;6.07;4.90;;;25.00;35.10;;;;;;5048302;28;20033;-50
2023/07/05 10:38:39;;;;;;;6.95;5.05;;;25.00;34.60;;;;;;5030690;28;20020;-51
2023/07/05 10:41:21;;;;;;;7.43;4.97;;;25.10;34.70;;;;;;5048085;28;20074;-48
2023/07/05 10:44:02;;;;;;;4.82;4.30;;;25.10;34.70;;;;;;5008254;28;20088;-52
2023/07/05 10:46:28;;;;;;;6.53;4.55;;;25.30;35.30;;;;;;5012957;28;20696;-52
2023/07/05 10:48:56;;;;;;;7.43;4.00;;;25.40;34.40;;;;;;5038182;28;20025;-53
2023/07/05 10:51:24;;;;;;;5.05;3.70;;;25.70;34.20;;;;;;5026708;28;20057;-52
2023/07/05 10:54:08;;;;;;;7.32;3.75;;;25.70;33.60;;;;;;5028364;28;20041;-53
2023/07/05 10:56:37;;;;;;;4.85;3.65;;;25.80;33.40;;;;;;5018684;28;20036;-52
2023/07/05 10:59:25;;;;;;;7.10;3.50;;;26.00;33.10;;;;;;5047696;28;20128;-49
2023/07/05 11:01:57;;;;;;;6.53;2.90;;;26.00;32.40;;;;;;5014290;28;20673;-49
2023/07/05 11:04:28;;;;;;;4.65;2.60;;;26.10;32.40;;;;;;5047669;28;20044;-50
2023/07/05 11:07:00;;;;;;;3.95;2.80;;;26.20;32.40;;;;;;5019227;28;20033;-52
2023/07/05 11:09:26;;;;;;;6.93;2.50;;;26.20;32.00;;;;;;5007486;28;20490;-47
2023/07/05 11:11:57;;;;;;;5.43;2.70;;;26.30;32.00;;;;;;5031519;28;20037;-51
2023/07/05 11:14:27;;;;;;;3.20;2.60;;;26.40;31.70;;;;;;5040522;28;20041;-52
2023/07/05 11:16:52;;;;;;;4.20;2.70;;;26.50;31.20;;;;;;5028367;28;20025;-50
2023/07/05 11:19:24;;;;;;;6.38;2.45;;;26.50;30.20;;;;;;5040404;28;20095;-50
2023/07/05 11:21:50;;;;;;;4.00;2.60;;;26.50;30.80;;;;;;5028186;28;20021;-49
2023/07/05 11:24:31;;;;;;;4.75;2.45;;;26.40;30.30;;;;;;5043980;28;20025;-50
2023/07/05 11:26:57;;;;;;;5.45;2.28;;;26.60;30.50;;;;;;5023885;28;20049;-49
2023/07/05 11:29:32;;;;;;;4.75;2.58;;;26.50;30.00;;;;;;5042012;28;20038;-51
2023/07/05 11:32:01;;;;;;;3.97;2.47;;;26.60;29.80;;;;;;5032774;28;20067;-55
2023/07/05 11:34:27;;;;;;;2.35;1.83;;;26.40;29.60;;;;;;5048107;28;20060;-50
2023/07/05 11:37:04;;;;;;;4.03;2.30;;;26.40;30.00;;;;;;5040820;28;20107;-49
2023/07/05 11:39:33;;;;;;;2.60;1.92;;;26.30;30.80;;;;;;5034572;28;20096;-49
2023/07/05 11:42:28;;;;;;;5.38;2.20;;;26.20;31.20;;;;;;5044611;28;20037;-51
2023/07/05 11:44:53;;;;;;;3.03;2.72;;;26.40;33.10;;;;;;5014671;28;20037;-48
2023/07/05 11:47:21;;;;;;;2.88;2.00;;;26.70;31.90;;;;;;5041346;28;20397;-51
2023/07/05 11:49:48;;;;;;;3.75;2.13;;;26.80;31.20;;;;;;5053685;28;20080;-48
2023/07/05 11:52:23;;;;;;;4.00;2.00;;;26.90;31.00;;;;;;5042187;28;20037;-53
2023/07/05 11:54:53;;;;;;;3.30;2.50;;;27.00;30.30;;;;;;5039498;28;20029;-52
2023/07/05 11:57:20;;;;;;;3.15;2.30;;;27.10;30.50;;;;;;5054241;28;20133;-50
2023/07/05 12:00:19;;;;;;;4.05;2.47;;;27.20;30.40;;;;;;5030996;28;20030;-50
2023/07/05 12:03:03;;;;;;;2.53;1.90;;;27.00;29.50;;;;;;5034385;28;20033;-49
2023/07/05 12:05:32;;;;;;;3.05;2.20;;;27.00;30.50;;;;;;5019708;28;20069;-51
2023/07/05 12:08:13;;;;;;;3.28;2.60;;;26.90;30.30;;;;;;5054285;28;20052;-52
2023/07/05 12:10:54;;;;;;;3.97;2.03;;;27.00;30.30;;;;;;5020629;28;20104;-48
2023/07/05 12:13:23;;;;;;;2.72;1.75;;;27.10;30.10;;;;;;5031064;28;20029;-51
2023/07/05 12:15:49;;;;;;;3.92;2.47;;;26.90;30.20;;;;;;5033942;28;20030;-56
2023/07/05 12:18:15;;;;;;;3.28;2.20;;;26.80;30.30;;;;;;5033391;28;20033;-54
2023/07/05 12:20:43;;;;;;;2.83;2.40;;;26.80;30.70;;;;;;5050475;28;20660;-55
2023/07/05 12:23:18;;;;;;;3.22;2.30;;;26.90;29.70;;;;;;5031812;28;20025;-54
2023/07/05 12:25:53;;;;;;;3.03;2.40;;;26.90;30.00;;;;;;5040111;28;20064;-54
2023/07/05 12:28:23;;;;;;;;;;;26.90;29.50;;;;;;5024821;28;20267;-54
2023/07/05 12:30:51;;;;;;;5.60;2.53;;;26.90;29.30;;;;;;5050464;28;19966;-55
2023/07/05 12:33:21;;;;;;;2.85;2.30;;;26.80;29.50;;;;;;5033627;28;20033;-55
2023/07/05 12:36:02;;;;;;;2.97;2.30;;;26.90;29.60;;;;;;5051544;28;20490;-52
2023/07/05 12:38:27;;;;;;;2.85;2.15;;;26.70;29.60;;;;;;5035006;28;20115;-51
2023/07/05 12:40:54;;;;;;;8.38;2.33;;;26.60;29.70;;;;;;5049808;28;20112;-53
2023/07/05 12:43:28;;;;;;;2.90;2.47;;;26.60;29.90;;;;;;5033244;28;20022;-50
2023/07/05 12:46:05;;;;;;;3.70;2.28;;;26.60;29.90;;;;;;5029918;28;20044;-52
2023/07/05 12:48:31;;;;;;;6.20;2.25;;;26.60;30.20;;;;;;5032102;28;20646;-53
2023/07/05 12:51:04;;;;;;;3.08;2.25;;;26.70;30.20;;;;;;5045902;28;20096;-54
2023/07/05 12:53:30;;;;;;;3.20;2.25;;;26.70;29.80;;;;;;5030001;28;20026;-56
2023/07/05 12:56:03;;;;;;;3.47;1.73;;;26.60;29.40;;;;;;5041881;28;20025;-56